Veterans Administration, California
Current Conditions -  °F | °C
As of 1:51 PM on Friday 26 Dec 2014 (Local Time) from KSMO Reporting Station
Clear Clear  
Wind Chill: 62°   Ceiling: Unl
Heat Index: 62°   Visibility: 10mi
Dew Point: 16°   Wind: 8mph
Humidity: 17%   Direction: 200°SSW
Pressure: 30.05"   Gusts: NA
Location:  34.0636°N, 118.465°W
Report Text: KSMO 262151Z 20007KT 10SM CLR 17/M09 A3005 RMK AO2 SLP174 T01671089
Loading
Personal Weather Stations






























Interactive Weather Map New forecast layout! Learn more

10-Day Weather Forecast

Advertisements
Track Severe Weather on mobile